createdAt,value
2018-05-14T00:02:09.681Z,91.30
2018-05-14T00:04:38.764Z,91.30
2018-05-14T00:07:07.076Z,91.30
2018-05-14T00:09:35.392Z,91.30
2018-05-14T00:12:03.700Z,91.40
2018-05-14T00:14:32.029Z,91.20
2018-05-14T00:17:00.316Z,91.20
2018-05-14T00:19:28.631Z,91.20
2018-05-14T00:21:56.919Z,91.30
2018-05-14T00:24:26.016Z,91.50
2018-05-14T00:26:54.317Z,91.50
2018-05-14T00:29:22.639Z,91.50
2018-05-14T00:31:50.932Z,91.70
2018-05-14T00:34:19.245Z,91.80
2018-05-14T00:36:47.544Z,92.00
2018-05-14T00:39:15.856Z,92.20
2018-05-14T00:41:44.156Z,92.40
2018-05-14T00:44:13.255Z,92.40
2018-05-14T00:46:42.396Z,92.30
2018-05-14T00:49:10.659Z,92.30
2018-05-14T00:51:38.972Z,92.10
2018-05-14T00:54:07.288Z,91.80
2018-05-14T00:56:35.597Z,92.00
2018-05-14T00:59:03.919Z,91.70
2018-05-14T01:01:32.233Z,91.40
2018-05-14T01:04:00.560Z,91.90
2018-05-14T01:06:28.928Z,91.60
2018-05-14T01:08:57.220Z,91.60
2018-05-14T01:11:25.507Z,91.70
2018-05-14T01:13:53.837Z,91.50
2018-05-14T01:16:22.130Z,91.70
2018-05-14T01:18:50.481Z,91.80
2018-05-14T01:21:18.776Z,91.90
2018-05-14T01:23:47.097Z,92.10
2018-05-14T01:26:15.392Z,92.30
2018-05-14T01:28:44.502Z,92.10
2018-05-14T01:31:12.792Z,92.00
2018-05-14T01:33:41.136Z,92.20
2018-05-14T01:36:10.201Z,92.40
2018-05-14T01:38:38.520Z,92.40
2018-05-14T01:41:07.581Z,92.30
2018-05-14T01:43:35.891Z,92.30
2018-05-14T01:46:04.221Z,92.30
2018-05-14T01:48:32.553Z,91.90
2018-05-14T01:51:01.622Z,91.70
2018-05-14T01:53:29.945Z,91.70
2018-05-14T01:55:58.248Z,91.60
2018-05-14T01:58:26.565Z,91.60
2018-05-14T02:00:54.851Z,91.50
2018-05-14T02:03:23.941Z,91.10
2018-05-14T02:05:53.000Z,91.00
2018-05-14T02:08:21.316Z,90.90
2018-05-14T02:10:50.404Z,90.90
2018-05-14T02:13:19.483Z,90.90
2018-05-14T02:15:47.812Z,90.70
2018-05-14T02:18:16.119Z,91.10
2018-05-14T02:20:44.474Z,91.30
2018-05-14T02:23:12.786Z,91.00
2018-05-14T02:25:41.104Z,91.60
2018-05-14T02:28:10.180Z,91.30
2018-05-14T02:30:38.497Z,91.20
2018-05-14T02:33:06.779Z,91.40
2018-05-14T02:35:35.103Z,91.90
2018-05-14T02:38:03.401Z,91.90
2018-05-14T02:40:32.484Z,91.70
2018-05-14T02:43:00.801Z,91.70
2018-05-14T02:45:29.134Z,91.70
2018-05-14T02:47:57.432Z,91.70
2018-05-14T02:50:25.771Z,91.50
2018-05-14T02:52:54.075Z,91.10
2018-05-14T02:55:22.408Z,91.50
2018-05-14T02:57:50.700Z,91.30
2018-05-14T03:00:19.033Z,91.10
2018-05-14T03:02:47.327Z,91.40
2018-05-14T03:05:15.648Z,91.40
2018-05-14T03:07:43.944Z,91.60
2018-05-14T03:10:13.029Z,91.50
2018-05-14T03:12:41.321Z,91.50
2018-05-14T03:15:10.418Z,91.30
2018-05-14T03:17:39.470Z,91.00
2018-05-14T03:20:07.793Z,90.90
2018-05-14T03:22:36.100Z,90.60
2018-05-14T03:25:04.416Z,90.90
2018-05-14T03:27:32.717Z,91.00
2018-05-14T03:30:01.051Z,91.10
2018-05-14T03:32:29.404Z,91.00
2018-05-14T03:34:57.715Z,91.10
2018-05-14T03:37:26.004Z,90.40
2018-05-14T03:39:54.324Z,90.70
2018-05-14T03:42:22.625Z,90.70
2018-05-14T03:44:50.922Z,91.00
2018-05-14T03:47:20.004Z,91.00
2018-05-14T03:49:48.304Z,91.00
2018-05-14T03:52:16.631Z,91.00
2018-05-14T03:54:44.927Z,91.30
2018-05-14T03:57:13.261Z,91.20
2018-05-14T03:59:53.477Z,91.50
2018-05-14T04:02:33.522Z,90.90
2018-05-14T04:08:01.556Z,91.50
2018-05-14T04:10:30.667Z,91.80
2018-05-14T04:12:59.740Z,91.50
2018-05-14T04:15:28.053Z,91.40
2018-05-14T04:17:56.369Z,91.30
2018-05-14T04:20:24.707Z,90.90
2018-05-14T04:22:53.759Z,91.10
2018-05-14T04:25:22.077Z,91.10
2018-05-14T04:27:51.132Z,90.60
2018-05-14T04:30:19.521Z,90.60
2018-05-14T04:32:47.808Z,90.70
2018-05-14T04:35:16.099Z,91.00
2018-05-14T04:37:45.197Z,91.30
2018-05-14T04:40:14.259Z,91.00
2018-05-14T04:42:42.590Z,91.00
2018-05-14T04:45:10.892Z,91.00
2018-05-14T04:47:39.227Z,91.50
2018-05-14T04:50:08.293Z,91.00
2018-05-14T04:52:36.606Z,91.00
2018-05-14T04:55:04.987Z,91.20
2018-05-14T04:57:34.064Z,90.80
2018-05-14T05:00:03.131Z,91.00
2018-05-14T05:02:31.477Z,91.00
2018-05-14T05:04:59.831Z,91.60
2018-05-14T05:07:28.105Z,91.50
2018-05-14T05:09:57.156Z,91.40
2018-05-14T05:12:25.488Z,91.40
2018-05-14T05:14:53.782Z,91.30
2018-05-14T05:17:22.121Z,91.20
2018-05-14T05:19:50.405Z,91.20
2018-05-14T05:22:19.495Z,91.20
2018-05-14T05:24:48.549Z,91.10
2018-05-14T05:27:16.868Z,91.10
2018-05-14T05:29:45.202Z,91.30
2018-05-14T05:32:13.497Z,91.10
2018-05-14T05:34:41.799Z,91.20
2018-05-14T05:37:10.127Z,91.30
2018-05-14T05:39:38.425Z,91.10
2018-05-14T05:42:06.759Z,90.90
2018-05-14T05:44:35.056Z,91.20
2018-05-14T05:47:03.391Z,91.30
2018-05-14T05:49:32.466Z,91.20
2018-05-14T05:52:00.807Z,91.20
2018-05-14T05:54:29.128Z,91.30
2018-05-14T05:56:57.456Z,91.30
2018-05-14T05:59:25.749Z,91.50
2018-05-14T06:01:54.076Z,91.60
2018-05-14T06:04:23.128Z,91.60
2018-05-14T06:06:51.440Z,91.60
2018-05-14T06:09:19.736Z,91.70
2018-05-14T06:11:48.069Z,92.00
2018-05-14T06:14:16.376Z,91.70
2018-05-14T06:16:44.676Z,92.30
2018-05-14T06:19:12.996Z,92.10
2018-05-14T06:21:41.299Z,92.00
2018-05-14T06:24:09.608Z,92.10
2018-05-14T06:26:37.917Z,92.10
2018-05-14T06:29:06.290Z,92.20
2018-05-14T06:31:34.587Z,92.10
2018-05-14T06:34:02.922Z,92.60
2018-05-14T06:36:31.216Z,92.50
2018-05-14T06:38:59.546Z,92.30
2018-05-14T06:41:27.835Z,91.80
2018-05-14T06:43:56.919Z,92.30
2018-05-14T06:46:25.220Z,92.30
2018-05-14T06:48:54.349Z,92.20
2018-05-14T06:51:22.696Z,92.30
2018-05-14T06:53:51.019Z,92.30
2018-05-14T06:56:19.317Z,92.10
2018-05-14T06:58:47.657Z,92.40
2018-05-14T07:01:15.969Z,92.40
2018-05-14T07:03:44.292Z,92.30
2018-05-14T07:06:12.584Z,92.60
2018-05-14T07:08:40.903Z,92.50
2018-05-14T07:11:09.185Z,92.30
2018-05-14T07:13:37.505Z,92.30
2018-05-14T07:16:05.844Z,91.90
2018-05-14T07:18:34.165Z,92.00
2018-05-14T07:21:02.464Z,91.80
2018-05-14T07:23:30.789Z,91.40
2018-05-14T07:25:59.839Z,91.50
2018-05-14T07:28:28.211Z,91.50
2018-05-14T07:30:56.506Z,91.80
2018-05-14T07:33:24.826Z,91.60
2018-05-14T07:35:53.134Z,91.50
2018-05-14T07:38:21.461Z,91.50
2018-05-14T07:40:50.571Z,91.50
2018-05-14T07:43:19.657Z,91.80
2018-05-14T07:45:47.973Z,91.80
2018-05-14T07:48:16.298Z,91.70
2018-05-14T07:50:44.584Z,91.50
2018-05-14T07:53:12.907Z,91.30
2018-05-14T07:55:41.225Z,91.10
2018-05-14T07:58:09.547Z,91.20
2018-05-14T08:00:37.910Z,91.50
2018-05-14T08:03:07.017Z,90.90
2018-05-14T08:05:35.392Z,90.90
2018-05-14T08:08:03.624Z,90.90
2018-05-14T08:10:31.950Z,90.50
2018-05-14T08:13:00.268Z,90.70
2018-05-14T08:15:28.589Z,90.40
2018-05-14T08:17:56.890Z,89.50
2018-05-14T08:20:25.229Z,90.40
2018-05-14T08:22:53.520Z,90.40
2018-05-14T08:25:22.602Z,89.90
2018-05-14T08:27:50.898Z,89.90
2018-05-14T08:30:19.980Z,90.20
2018-05-14T08:32:49.049Z,88.30
2018-05-14T08:35:17.378Z,88.30
2018-05-14T08:37:46.441Z,89.10
2018-05-14T08:40:14.760Z,89.00
2018-05-14T08:42:43.080Z,88.10
2018-05-14T08:45:11.400Z,88.10
2018-05-14T08:47:40.470Z,88.20
2018-05-14T08:50:08.796Z,88.20
2018-05-14T08:52:37.088Z,88.20
2018-05-14T08:55:05.408Z,88.50
2018-05-14T08:57:33.716Z,88.30
2018-05-14T09:00:02.040Z,89.40
2018-05-14T09:02:30.324Z,88.20
2018-05-14T09:04:58.662Z,87.80
2018-05-14T09:07:26.986Z,88.50
2018-05-14T09:09:55.304Z,88.20
2018-05-14T09:12:23.600Z,87.70
2018-05-14T09:14:51.931Z,88.90
2018-05-14T09:17:20.227Z,87.70
2018-05-14T09:19:49.310Z,85.90
2018-05-14T09:22:17.616Z,85.90
2018-05-14T09:24:45.941Z,85.60
2018-05-14T09:27:14.240Z,86.60
2018-05-14T09:29:43.336Z,85.70
2018-05-14T09:32:11.640Z,85.70
2018-05-14T09:34:39.960Z,87.60
2018-05-14T09:37:08.253Z,86.00
2018-05-14T09:39:36.576Z,85.60
2018-05-14T09:42:04.875Z,84.00
2018-05-14T09:44:33.256Z,82.80
2018-05-14T09:47:01.529Z,79.20
2018-05-14T09:49:29.828Z,79.30
2018-05-14T09:51:58.158Z,79.00
2018-05-14T09:54:26.447Z,79.60
2018-05-14T09:56:54.808Z,80.40
2018-05-14T09:59:23.117Z,80.10
2018-05-14T10:01:51.439Z,80.30
2018-05-14T10:04:19.748Z,80.70
2018-05-14T10:06:48.081Z,80.80
2018-05-14T10:09:16.388Z,82.40
2018-05-14T10:11:45.478Z,82.30
2018-05-14T10:14:14.539Z,80.90
2018-05-14T10:16:42.854Z,80.90
2018-05-14T10:19:11.937Z,81.60
2018-05-14T10:21:41.029Z,82.60
2018-05-14T10:24:09.337Z,81.60
2018-05-14T10:26:37.656Z,81.50
2018-05-14T10:29:05.945Z,82.10
2018-05-14T10:31:34.271Z,81.80
2018-05-14T10:34:02.572Z,79.50
2018-05-14T10:36:30.901Z,77.30
2018-05-14T10:38:59.201Z,78.30
2018-05-14T10:41:27.544Z,77.20
2018-05-14T10:43:55.853Z,78.70
2018-05-14T10:46:24.939Z,78.00
2018-05-14T10:48:54.002Z,77.90
2018-05-14T10:51:22.327Z,77.90
2018-05-14T10:53:50.633Z,80.40
2018-05-14T10:56:18.960Z,79.30
2018-05-14T10:58:47.263Z,78.90
2018-05-14T11:01:15.595Z,80.40
2018-05-14T11:03:43.892Z,79.70
2018-05-14T11:06:12.984Z,77.90
2018-05-14T11:08:42.040Z,77.90
2018-05-14T11:11:11.133Z,79.20
2018-05-14T11:13:40.209Z,76.50
2018-05-14T11:16:08.538Z,76.50
2018-05-14T11:18:36.847Z,77.20
2018-05-14T11:21:05.180Z,77.90
2018-05-14T11:23:33.468Z,77.60
2018-05-14T11:26:01.791Z,77.00
2018-05-14T11:28:30.109Z,78.60
2018-05-14T11:30:58.424Z,78.50
2018-05-14T11:33:27.479Z,78.80
2018-05-14T11:35:55.800Z,78.80
2018-05-14T11:38:24.876Z,78.10
2018-05-14T11:40:53.168Z,78.00
2018-05-14T11:43:22.279Z,78.20
2018-05-14T11:45:50.579Z,78.20
2018-05-14T11:48:18.911Z,79.70
2018-05-14T11:50:48.012Z,81.10
2018-05-14T11:53:16.301Z,81.10
2018-05-14T11:55:45.362Z,81.50
2018-05-14T11:58:13.683Z,81.50
2018-05-14T12:00:41.976Z,81.40
2018-05-14T12:03:10.364Z,82.90
2018-05-14T12:05:39.389Z,81.60
2018-05-14T12:08:07.760Z,81.60
2018-05-14T12:10:36.078Z,81.60
2018-05-14T12:13:04.416Z,83.40
2018-05-14T12:15:32.721Z,83.50
2018-05-14T12:18:01.926Z,82.80
2018-05-14T12:20:30.140Z,82.80
2018-05-14T12:22:58.452Z,81.90
2018-05-14T12:25:26.750Z,79.70
2018-05-14T12:27:55.844Z,80.10
2018-05-14T12:30:24.160Z,79.90
2018-05-14T12:32:52.500Z,80.20
2018-05-14T12:35:20.798Z,78.70
2018-05-14T12:37:49.127Z,79.80
2018-05-14T12:40:17.434Z,79.10
2018-05-14T12:42:45.756Z,80.60
2018-05-14T12:45:14.061Z,76.70
2018-05-14T12:47:42.417Z,77.60
2018-05-14T12:50:10.714Z,78.20
2018-05-14T12:52:39.047Z,79.30
2018-05-14T12:55:07.355Z,80.00
2018-05-14T12:57:35.683Z,78.50
2018-05-14T13:00:04.739Z,77.20
2018-05-14T13:02:33.073Z,77.10
2018-05-14T13:05:01.374Z,76.40
2018-05-14T13:07:29.709Z,76.50
2018-05-14T13:09:58.036Z,76.20
2018-05-14T13:12:27.088Z,78.90
2018-05-14T13:14:56.176Z,77.20
2018-05-14T13:17:25.245Z,77.50
2018-05-14T13:19:53.576Z,77.50
2018-05-14T13:22:21.880Z,77.00
2018-05-14T13:24:50.203Z,78.30
2018-05-14T13:27:19.273Z,78.00
2018-05-14T13:29:47.603Z,78.00
2018-05-14T13:32:15.909Z,77.50
2018-05-14T13:34:44.220Z,77.60
2018-05-14T13:37:12.527Z,79.10
2018-05-14T13:39:40.913Z,79.30
2018-05-14T13:42:09.288Z,79.90
2018-05-14T13:44:37.722Z,80.60
2018-05-14T13:47:06.085Z,82.20
2018-05-14T13:49:34.488Z,82.60
2018-05-14T13:52:02.845Z,84.10
2018-05-14T13:54:31.164Z,82.20
2018-05-14T13:57:00.228Z,85.20
2018-05-14T13:59:28.551Z,85.20
2018-05-14T14:01:56.849Z,84.90
2018-05-14T14:04:25.181Z,84.50
2018-05-14T14:06:53.468Z,83.40
2018-05-14T14:09:22.552Z,85.80
2018-05-14T14:11:50.850Z,85.80
2018-05-14T14:14:19.941Z,84.90
2018-05-14T14:16:49.005Z,85.90
2018-05-14T14:19:17.334Z,85.90
2018-05-14T14:21:45.627Z,86.60
2018-05-14T14:24:14.035Z,86.60
2018-05-14T14:26:43.038Z,87.50
2018-05-14T14:29:11.384Z,87.60
2018-05-14T14:31:39.679Z,87.50
2018-05-14T14:34:07.994Z,88.00
2018-05-14T14:36:36.311Z,88.60
2018-05-14T14:39:07.419Z,88.50
2018-05-14T14:41:36.524Z,88.60
2018-05-14T14:44:05.591Z,89.70
2018-05-14T14:46:34.696Z,89.20
2018-05-14T14:49:03.054Z,89.00
2018-05-14T14:51:31.346Z,89.10
2018-05-14T14:54:00.425Z,88.60
2018-05-14T14:56:28.749Z,88.60
2018-05-14T14:58:57.073Z,87.80
2018-05-14T15:01:25.430Z,88.10
2018-05-14T15:03:53.724Z,87.00
2018-05-14T15:06:22.056Z,87.20
2018-05-14T15:08:50.369Z,87.40
2018-05-14T15:11:18.693Z,86.90
2018-05-14T15:13:46.988Z,85.60
2018-05-14T15:16:15.308Z,85.50
2018-05-14T15:18:43.606Z,84.60
2018-05-14T15:21:11.938Z,83.40
2018-05-14T15:23:40.229Z,83.60
2018-05-14T15:26:08.561Z,83.80
2018-05-14T15:28:37.626Z,81.90
2018-05-14T15:31:05.940Z,81.90
2018-05-14T15:33:35.006Z,81.20
2018-05-14T15:36:03.335Z,81.20
2018-05-14T15:38:31.632Z,82.00
2018-05-14T15:40:59.961Z,83.80
2018-05-14T15:43:29.020Z,82.50
2018-05-14T15:45:57.368Z,82.10
2018-05-14T15:48:25.669Z,81.20
2018-05-14T15:50:54.754Z,80.10
2018-05-14T15:53:23.051Z,80.00
2018-05-14T15:55:51.371Z,79.20
2018-05-14T15:58:19.676Z,76.70
2018-05-14T16:00:48.017Z,76.00
2018-05-14T16:03:17.080Z,74.20
2018-05-14T16:05:45.418Z,74.20
2018-05-14T16:08:13.715Z,73.70
2018-05-14T16:10:42.024Z,74.40
2018-05-14T16:13:10.325Z,75.30
2018-05-14T16:15:39.414Z,75.30
2018-05-14T16:18:07.699Z,75.10
2018-05-14T16:20:36.788Z,74.50
2018-05-14T16:23:05.860Z,74.10
2018-05-14T16:25:34.229Z,74.10
2018-05-14T16:28:02.555Z,75.30
2018-05-14T16:30:31.641Z,76.10
2018-05-14T16:33:00.717Z,75.10
2018-05-14T16:35:29.024Z,75.00
2018-05-14T16:37:57.347Z,74.40
2018-05-14T16:40:25.640Z,75.70
2018-05-14T16:42:53.997Z,72.60
2018-05-14T16:45:22.284Z,72.60
2018-05-14T16:47:50.596Z,74.10
2018-05-14T16:50:19.686Z,74.60
2018-05-14T16:52:48.784Z,77.80
2018-05-14T16:55:17.080Z,77.80
2018-05-14T16:57:45.470Z,79.40
2018-05-14T17:00:13.725Z,78.60
2018-05-14T17:02:42.048Z,80.80
2018-05-14T17:05:10.349Z,82.40
2018-05-14T17:07:38.719Z,82.80
2018-05-14T17:10:06.975Z,83.90
2018-05-14T17:12:35.296Z,81.60
2018-05-14T17:15:03.628Z,84.80
2018-05-14T17:17:32.035Z,87.00
2018-05-14T17:20:00.415Z,87.60
2018-05-14T17:22:28.824Z,87.90
2018-05-14T17:24:58.008Z,89.50
2018-05-14T17:27:26.372Z,89.50
2018-05-14T17:29:54.748Z,89.60
2018-05-14T17:32:23.165Z,89.50
2018-05-14T17:34:52.265Z,90.10
2018-05-14T17:37:21.448Z,90.20
2018-05-14T17:39:49.742Z,90.20
2018-05-14T17:42:18.824Z,90.70
2018-05-14T17:44:47.392Z,90.70
2018-05-14T17:47:15.726Z,91.00
2018-05-14T17:49:44.042Z,91.10
2018-05-14T17:52:12.356Z,91.40
2018-05-14T17:54:41.421Z,91.40
2018-05-14T17:57:09.831Z,91.40
2018-05-14T17:59:38.060Z,91.30
2018-05-14T18:02:06.395Z,91.40
2018-05-14T18:04:34.685Z,91.00
2018-05-14T18:07:03.010Z,91.10
2018-05-14T18:09:31.304Z,91.40
2018-05-14T18:12:00.401Z,91.70
2018-05-14T18:14:29.466Z,91.40
2018-05-14T18:16:57.755Z,91.70
2018-05-14T18:19:26.076Z,91.80
2018-05-14T18:22:00.030Z,91.70
2018-05-14T18:24:28.363Z,91.70
2018-05-14T18:26:56.654Z,91.60
2018-05-14T18:29:30.841Z,91.40
2018-05-14T18:32:04.872Z,91.50
2018-05-14T18:34:39.216Z,91.50
2018-05-14T18:37:08.306Z,91.40
2018-05-14T18:39:37.416Z,91.20
2018-05-14T18:42:05.705Z,91.20
2018-05-14T18:44:34.042Z,91.10
2018-05-14T18:47:02.341Z,91.30
2018-05-14T18:49:30.661Z,91.20
2018-05-14T18:51:59.068Z,91.00
2018-05-14T18:54:27.324Z,90.90
2018-05-14T18:56:56.385Z,90.80
2018-05-14T18:59:24.700Z,90.80
2018-05-14T19:01:53.753Z,90.80
2018-05-14T19:04:22.065Z,90.80
2018-05-14T19:06:51.116Z,91.60
2018-05-14T19:09:19.419Z,91.60
2018-05-14T19:11:52.429Z,91.80
2018-05-14T19:14:21.572Z,91.00
2018-05-14T19:16:55.752Z,91.00
2018-05-14T19:19:24.072Z,90.80
2018-05-14T19:21:52.376Z,90.80
2018-05-14T19:24:20.671Z,90.80
2018-05-14T19:26:49.721Z,90.70
2018-05-14T19:29:23.937Z,90.50
2018-05-14T19:31:52.961Z,90.50
2018-05-14T19:34:26.852Z,90.50
2018-05-14T19:36:55.135Z,90.60
2018-05-14T19:39:29.245Z,90.70
2018-05-14T19:41:57.527Z,90.30
2018-05-14T19:44:25.841Z,90.50
2018-05-14T19:46:54.899Z,90.70
2018-05-14T19:49:23.293Z,90.70
2018-05-14T19:51:51.520Z,90.90
2018-05-14T19:54:19.832Z,91.00
2018-05-14T19:56:48.109Z,91.20
2018-05-14T19:59:16.428Z,91.40
2018-05-14T20:01:44.720Z,91.40
2018-05-14T20:04:13.041Z,91.70
2018-05-14T20:06:41.349Z,91.90
2018-05-14T20:09:10.441Z,91.70
2018-05-14T20:11:38.753Z,91.70
2018-05-14T20:14:07.064Z,91.60
2018-05-14T20:16:35.352Z,91.50
2018-05-14T20:19:03.656Z,91.40
2018-05-14T20:21:32.700Z,91.40
2018-05-14T20:24:01.026Z,91.40
2018-05-14T20:26:30.090Z,91.60
2018-05-14T20:28:58.461Z,91.60
2018-05-14T20:31:26.757Z,91.60
2018-05-14T20:33:55.023Z,91.70
2018-05-14T20:36:23.313Z,91.80
2018-05-14T20:38:51.613Z,91.70
2018-05-14T20:41:20.702Z,91.60
2018-05-14T20:43:49.763Z,91.60
2018-05-14T20:46:18.089Z,91.60
2018-05-14T20:48:46.377Z,91.60
2018-05-14T20:51:14.716Z,91.60
2018-05-14T20:53:42.998Z,91.90
2018-05-14T20:56:11.323Z,91.90
2018-05-14T20:58:39.618Z,91.80
2018-05-14T21:01:07.928Z,91.80
2018-05-14T21:03:36.209Z,91.90
2018-05-14T21:06:05.295Z,91.80
2018-05-14T21:08:33.585Z,91.80
2018-05-14T21:11:02.672Z,91.70
2018-05-14T21:13:30.977Z,91.70
2018-05-14T21:15:59.292Z,91.70
2018-05-14T21:18:27.596Z,91.70
2018-05-14T21:20:55.932Z,91.60
2018-05-14T21:23:24.226Z,91.50
2018-05-14T21:25:52.532Z,91.50
2018-05-14T21:28:20.819Z,91.70
2018-05-14T21:30:49.911Z,91.50
2018-05-14T21:33:18.201Z,91.50
2018-05-14T21:35:47.277Z,91.60
2018-05-14T21:38:15.577Z,91.60
2018-05-14T21:40:44.648Z,91.80
2018-05-14T21:43:12.935Z,91.80
2018-05-14T21:45:41.245Z,91.80
2018-05-14T21:48:09.546Z,91.70
2018-05-14T21:50:37.866Z,92.10
2018-05-14T21:53:06.177Z,92.30
2018-05-14T21:55:34.496Z,92.30
2018-05-14T21:58:02.812Z,92.50
2018-05-14T22:00:31.116Z,92.70
2018-05-14T22:02:59.424Z,92.60
2018-05-14T22:05:27.733Z,92.60
2018-05-14T22:07:56.788Z,92.30
2018-05-14T22:10:25.101Z,92.30
2018-05-14T22:12:53.394Z,92.20
2018-05-14T22:15:22.506Z,91.80
2018-05-14T22:17:50.817Z,91.80
2018-05-14T22:20:19.116Z,91.70
2018-05-14T22:22:47.444Z,91.60
2018-05-14T22:25:15.753Z,91.50
2018-05-14T22:27:44.061Z,91.30
2018-05-14T22:30:12.358Z,91.30
2018-05-14T22:32:41.441Z,91.00
2018-05-14T22:35:10.496Z,90.80
2018-05-14T22:37:39.187Z,90.80
2018-05-14T22:40:07.477Z,90.70
2018-05-14T22:42:35.788Z,90.70
2018-05-14T22:45:04.100Z,90.70
2018-05-14T22:47:32.432Z,90.60
2018-05-14T22:50:01.506Z,90.60
2018-05-14T22:52:29.834Z,90.50
2018-05-14T22:54:58.121Z,90.50
2018-05-14T22:57:26.424Z,90.40
2018-05-14T22:59:54.711Z,90.40
2018-05-14T23:02:23.060Z,90.30
2018-05-14T23:04:51.348Z,90.20
2018-05-14T23:07:19.681Z,90.10
2018-05-14T23:09:47.964Z,90.20
2018-05-14T23:12:16.272Z,90.10
2018-05-14T23:14:44.555Z,90.10
2018-05-14T23:17:12.866Z,90.10
2018-05-14T23:19:41.152Z,90.10
2018-05-14T23:22:15.864Z,90.10
2018-05-14T23:24:44.147Z,90.10
2018-05-14T23:27:12.465Z,90.10
2018-05-14T23:29:40.744Z,90.20
2018-05-14T23:32:09.065Z,90.20
2018-05-14T23:34:37.355Z,90.10
2018-05-14T23:37:05.677Z,90.20
2018-05-14T23:39:33.981Z,90.50
2018-05-14T23:42:02.288Z,90.20
2018-05-14T23:44:30.572Z,90.10
2018-05-14T23:46:58.895Z,90.00
2018-05-14T23:49:27.198Z,89.80
2018-05-14T23:51:55.484Z,89.60
2018-05-14T23:54:23.800Z,89.70
2018-05-14T23:56:52.856Z,90.10
2018-05-14T23:59:21.168Z,90.40
